Time;durP1;ratioP1;P1;durP2;ratioP2;P2;SDS_P1;SDS_P2;PMS_P1;PMS_P2;Temp;Humidity;BMP_temperature;BMP_pressure;BME280_temperature;BME280_humidity;BME280_pressure;Samples;Min_cycle;Max_cycle;Signal;HPM_P1;HPM_P2
2022/03/16 00:00:06;;;;;;;24.10;19.95;;;;;;;0.16;98.33;102406.25;1044141;28;20287;-73
2022/03/16 00:00:42;;;;;;;23.98;18.67;;;;;;;0.19;97.91;102400.78;1043855;28;20287;-73
2022/03/16 00:01:14;;;;;;;21.80;19.23;;;;;;;0.18;98.30;102398.25;1043904;28;20380;-73
2022/03/16 00:01:46;;;;;;;22.15;18.63;;;;;;;0.21;98.55;102404.13;1043195;28;20319;-72
2022/03/16 00:02:20;;;;;;;22.40;19.70;;;;;;;0.23;98.27;102402.22;1043986;28;20755;-73
2022/03/16 00:02:51;;;;;;;23.35;19.35;;;;;;;0.21;98.23;102398.88;1043542;28;20302;-73
2022/03/16 00:03:23;;;;;;;23.48;20.80;;;;;;;0.11;98.42;102405.72;1043344;28;20310;-73
2022/03/16 00:03:54;;;;;;;21.80;18.63;;;;;;;0.17;98.79;102402.66;1039447;28;20798;-73
2022/03/16 00:04:26;;;;;;;20.10;18.00;;;;;;;0.13;98.50;102401.22;1035908;28;20315;-73
2022/03/16 00:04:58;;;;;;;21.23;17.40;;;;;;;0.10;98.46;102404.06;1035147;28;20301;-73
2022/03/16 00:05:30;;;;;;;19.45;17.38;;;;;;;0.14;98.43;102404.69;1035124;28;20855;-73
2022/03/16 00:06:02;;;;;;;18.80;15.80;;;;;;;0.17;98.71;102405.28;1035995;28;20364;-73
2022/03/16 00:06:33;;;;;;;19.30;17.02;;;;;;;0.18;98.82;102404.34;1039966;28;20810;-73
2022/03/16 00:07:05;;;;;;;19.20;17.25;;;;;;;0.27;98.76;102408.06;1043357;28;20306;-73
2022/03/16 00:07:36;;;;;;;18.88;17.05;;;;;;;0.25;98.96;102402.94;1043688;28;20303;-73
2022/03/16 00:08:08;;;;;;;20.52;17.63;;;;;;;0.25;98.62;102409.97;1043358;28;20349;-73
2022/03/16 00:08:39;;;;;;;22.00;18.90;;;;;;;0.38;98.50;102404.69;1043985;28;20328;-72
2022/03/16 00:09:11;;;;;;;22.90;19.50;;;;;;;0.31;97.91;102409.56;1043487;28;20456;-73
2022/03/16 00:09:44;;;;;;;19.65;17.75;;;;;;;0.20;97.90;102407.69;1041396;28;20307;-72
2022/03/16 00:10:15;;;;;;;22.38;19.45;;;;;;;0.18;98.13;102414.81;1039324;28;20302;-73
2022/03/16 00:10:47;;;;;;;22.00;19.25;;;;;;;0.10;97.92;102411.09;1039692;28;20988;-73
2022/03/16 00:11:20;;;;;;;22.08;19.75;;;;;;;-0.06;98.09;102411.31;1043799;28;20295;-73
2022/03/16 00:11:52;;;;;;;22.13;18.85;;;;;;;-0.06;98.29;102408.69;1043450;28;20303;-73
2022/03/16 00:12:23;;;;;;;21.58;19.40;;;;;;;-0.05;98.44;102408.59;1043817;28;20405;-73
2022/03/16 00:12:55;;;;;;;20.60;18.58;;;;;;;-0.12;98.91;102402.13;1043877;28;20292;-73
2022/03/16 00:13:26;;;;;;;27.35;20.20;;;;;;;-0.17;98.71;102409.47;1043386;28;20305;-72
2022/03/16 00:13:59;;;;;;;22.70;20.30;;;;;;;-0.20;98.93;102411.47;1043725;28;20299;-73
2022/03/16 00:14:31;;;;;;;20.42;18.00;;;;;;;-0.21;98.98;102412.41;1043437;28;20789;-73
2022/03/16 00:15:07;;;;;;;22.42;20.08;;;;;;;-0.22;99.05;102406.34;1039479;28;20312;-73
2022/03/16 00:15:38;;;;;;;22.40;18.88;;;;;;;-0.18;99.18;102412.19;1035547;28;20296;-73
2022/03/16 00:16:10;;;;;;;28.48;20.23;;;;;;;-0.20;99.25;102401.84;1036209;28;20307;-73
2022/03/16 00:16:42;;;;;;;20.10;18.15;;;;;;;-0.18;99.47;102410.41;1040495;28;20303;-73
2022/03/16 00:17:13;;;;;;;22.88;20.63;;;;;;;-0.21;99.23;102402.78;1043432;28;20295;-73
2022/03/16 00:17:45;;;;;;;25.90;19.35;;;;;;;-0.16;99.61;102403.28;1043796;28;20314;-72
2022/03/16 00:18:19;;;;;;;22.05;18.92;;;;;;;-0.12;99.23;102406.53;1043814;28;20384;-73
2022/03/16 00:18:51;;;;;;;22.30;19.90;;;;;;;-0.15;99.49;102409.38;1043599;28;20295;-73
2022/03/16 00:19:22;;;;;;;22.63;20.42;;;;;;;-0.18;99.77;102402.56;1043495;28;20291;-73
2022/03/16 00:19:54;;;;;;;22.90;20.25;;;;;;;-0.21;99.69;102407.19;1043234;28;20829;-73
2022/03/16 00:20:26;;;;;;;23.20;20.50;;;;;;;-0.22;100.00;102406.34;1043792;28;20299;-73
2022/03/16 00:20:59;;;;;;;22.00;19.70;;;;;;;-0.22;100.00;102400.28;1043963;28;20386;-73
2022/03/16 00:21:30;;;;;;;20.23;18.13;;;;;;;-0.24;100.00;102402.16;1043469;28;20304;-73
2022/03/16 00:22:03;;;;;;;25.35;18.95;;;;;;;-0.12;99.76;102401.28;1039311;28;20308;-73
2022/03/16 00:22:35;;;;;;;20.90;18.85;;;;;;;-0.07;100.00;102409.66;1034773;28;20293;-73
2022/03/16 00:23:07;;;;;;;22.35;19.05;;;;;;;0.08;100.00;102407.75;1035314;28;20300;-73
2022/03/16 00:23:38;;;;;;;22.38;19.48;;;;;;;0.09;100.00;102405.00;1036379;28;20297;-73
2022/03/16 00:24:10;;;;;;;20.92;18.80;;;;;;;0.16;99.99;102408.84;1043506;28;20794;-72
2022/03/16 00:24:41;;;;;;;20.75;18.65;;;;;;;0.22;99.94;102405.78;1043533;28;20299;-73
2022/03/16 00:25:13;;;;;;;21.80;19.60;;;;;;;0.25;99.92;102404.72;1043241;28;20387;-73
2022/03/16 00:25:45;;;;;;;24.50;20.20;;;;;;;0.32;99.88;102410.38;1043649;28;20825;-73
2022/03/16 00:26:16;;;;;;;22.80;20.40;;;;;;;0.28;99.73;102410.63;1037419;28;20288;-73
2022/03/16 00:26:47;;;;;;;29.67;22.95;;;;;;;0.35;99.67;102407.53;1043369;28;20299;-73
2022/03/16 00:27:19;;;;;;;26.58;21.13;;;;;;;0.37;99.64;102403.03;1039284;28;20300;-73
2022/03/16 00:27:51;;;;;;;24.10;21.52;;;;;;;0.42;99.51;102403.53;1040041;28;20292;-73
2022/03/16 00:28:25;;;;;;;25.48;20.05;;;;;;;0.32;99.13;102405.97;1039352;28;20791;-73
2022/03/16 00:28:57;;;;;;;25.33;20.20;;;;;;;0.28;99.25;102408.00;1039963;28;20652;-73
2022/03/16 00:29:28;;;;;;;21.73;19.38;;;;;;;0.09;99.21;102405.00;1043740;28;20295;-72
2022/03/16 00:30:06;;;;;;;23.10;18.90;;;;;;;0.10;99.08;102401.44;1036888;28;20285;-73
2022/03/16 00:30:38;;;;;;;23.02;19.05;;;;;;;0.03;99.17;102407.25;1034811;28;20792;-73
2022/03/16 00:31:10;;;;;;;26.98;18.70;;;;;;;0.00;98.97;102410.91;1035252;28;20337;-73
2022/03/16 00:31:41;;;;;;;22.33;19.95;;;;;;;0.01;99.18;102409.97;1037935;28;20383;-73
2022/03/16 00:32:14;;;;;;;22.80;18.65;;;;;;;0.03;99.12;102408.06;1041210;28;20382;-73
2022/03/16 00:32:45;;;;;;;20.83;18.83;;;;;;;0.07;99.13;102406.06;1043130;28;20711;-73
2022/03/16 00:33:17;;;;;;;22.98;19.75;;;;;;;0.03;98.84;102410.69;1043596;28;20342;-73
2022/03/16 00:33:51;;;;;;;22.02;19.77;;;;;;;-0.15;98.73;102412.81;1039491;28;20807;-72
2022/03/16 00:34:22;;;;;;;19.77;17.67;;;;;;;-0.09;99.15;102407.13;1039884;28;20326;-73
2022/03/16 00:34:55;;;;;;;22.25;20.02;;;;;;;-0.17;99.23;102411.25;1039252;28;20303;-73
2022/03/16 00:35:26;;;;;;;23.95;18.65;;;;;;;-0.05;98.90;102408.59;1040453;28;20360;-73
2022/03/16 00:35:58;;;;;;;21.20;18.95;;;;;;;0.00;98.92;102418.78;1043493;28;20311;-73
2022/03/16 00:36:29;;;;;;;23.15;19.42;;;;;;;0.06;99.16;102415.72;1043470;28;20295;-73
2022/03/16 00:37:01;;;;;;;22.10;19.52;;;;;;;0.07;98.80;102419.16;1043794;28;20292;-72
2022/03/16 00:37:33;;;;;;;22.92;19.30;;;;;;;0.07;99.08;102417.38;1039514;28;20327;-73
2022/03/16 00:38:07;;;;;;;24.17;20.60;;;;;;;0.09;98.62;102415.50;1035283;28;20309;-73
2022/03/16 00:38:39;;;;;;;22.83;20.38;;;;;;;0.11;98.83;102418.84;1030801;28;20709;-73
2022/03/16 00:39:10;;;;;;;23.67;20.85;;;;;;;0.07;98.61;102421.78;1033367;28;20301;-73
2022/03/16 00:39:42;;;;;;;21.60;18.88;;;;;;;0.02;98.53;102424.75;1035377;28;20672;-73
2022/03/16 00:40:13;;;;;;;21.60;19.17;;;;;;;-0.08;98.66;102418.44;1039762;28;20295;-73
2022/03/16 00:40:45;;;;;;;24.30;20.25;;;;;;;-0.11;98.33;102419.50;1039343;28;20296;-72
2022/03/16 00:41:17;;;;;;;22.88;18.88;;;;;;;-0.12;98.47;102422.25;1035237;28;20319;-73
2022/03/16 00:41:49;;;;;;;21.83;19.48;;;;;;;-0.25;98.18;102416.19;1031690;28;20313;-73
2022/03/16 00:42:20;;;;;;;22.92;18.50;;;;;;;-0.11;98.59;102423.91;1035195;28;20300;-73
2022/03/16 00:42:52;;;;;;;27.17;19.25;;;;;;;-0.01;98.28;102430.16;1035188;28;20309;-73
2022/03/16 00:43:24;;;;;;;21.00;18.80;;;;;;;0.05;98.48;102427.13;1027265;28;20324;-73
2022/03/16 00:43:56;;;;;;;24.05;21.52;;;;;;;0.08;98.30;102418.22;1024216;28;20310;-73
2022/03/16 00:44:28;;;;;;;23.65;19.88;;;;;;;0.09;98.21;102422.50;1027518;28;20345;-73
2022/03/16 00:45:00;;;;;;;21.13;18.85;;;;;;;0.09;97.84;102420.72;1024181;28;20377;-73
2022/03/16 00:45:32;;;;;;;23.33;20.85;;;;;;;0.01;98.22;102417.81;1032421;28;20725;-73
2022/03/16 00:46:04;;;;;;;22.65;20.27;;;;;;;-0.09;98.13;102422.84;1035950;28;20407;-74
2022/03/16 00:46:36;;;;;;;23.23;20.75;;;;;;;-0.16;98.55;102428.63;1035047;28;20312;-73
2022/03/16 00:47:09;;;;;;;22.90;20.55;;;;;;;-0.12;98.51;102422.25;1039299;28;20304;-73
2022/03/16 00:47:40;;;;;;;24.50;19.83;;;;;;;-0.11;98.97;102423.91;1039951;28;20652;-73
2022/03/16 00:48:13;;;;;;;24.65;20.58;;;;;;;-0.04;98.65;102425.16;1044349;28;20295;-74
2022/03/16 00:48:45;;;;;;;22.35;19.95;;;;;;;0.01;98.53;102427.47;1047100;28;20311;-73
2022/03/16 00:49:16;;;;;;;25.95;21.95;;;;;;;0.03;98.48;102423.78;1043996;28;20291;-73
2022/03/16 00:49:48;;;;;;;24.00;21.55;;;;;;;0.03;98.50;102434.28;1041530;28;20296;-73
2022/03/16 00:50:19;;;;;;;22.13;19.67;;;;;;;0.00;98.55;102426.63;1043611;28;20303;-73
2022/03/16 00:50:51;;;;;;;22.70;20.40;;;;;;;0.03;98.51;102430.81;1043861;28;20299;-73
2022/03/16 00:51:23;;;;;;;23.67;21.17;;;;;;;-0.01;98.78;102430.16;1043795;28;20314;-73
2022/03/16 00:51:55;;;;;;;27.02;20.52;;;;;;;-0.11;98.81;102432.59;1043791;28;20394;-73
2022/03/16 00:52:26;;;;;;;28.05;21.90;;;;;;;-0.15;98.55;102433.78;1039200;28;20300;-73
2022/03/16 00:52:58;;;;;;;27.60;18.85;;;;;;;-0.12;98.89;102430.09;1039203;28;20304;-77
2022/03/16 00:53:30;;;;;;;21.85;19.63;;;;;;;-0.08;98.85;102429.75;1039156;28;20355;-77
2022/03/16 00:54:02;;;;;;;20.23;18.02;;;;;;;-0.01;98.64;102430.16;1035495;28;20732;-78
2022/03/16 00:54:33;;;;;;;20.00;17.90;;;;;;;0.01;98.81;102428.31;1039512;28;20370;-77
2022/03/16 00:55:06;;;;;;;21.38;16.33;;;;;;;-0.16;98.63;102433.88;1039737;28;20304;-77
2022/03/16 00:55:38;;;;;;;18.98;16.88;;;;;;;-0.21;98.74;102433.38;1043442;28;20714;-77
2022/03/16 00:56:09;;;;;;;18.10;16.25;;;;;;;-0.15;98.82;102427.69;1043659;28;20860;-77
2022/03/16 00:56:41;;;;;;;20.13;18.00;;;;;;;-0.09;98.79;102433.34;1042896;28;20682;-77
2022/03/16 00:57:13;;;;;;;19.27;17.15;;;;;;;-0.09;98.94;102427.25;1038410;28;20295;-77
2022/03/16 00:57:45;;;;;;;22.60;18.70;;;;;;;-0.05;98.80;102429.53;1039216;28;20304;-77
2022/03/16 00:58:17;;;;;;;21.92;19.05;;;;;;;-0.03;98.78;102421.59;1039286;28;20302;-78
2022/03/16 00:58:49;;;;;;;23.13;20.73;;;;;;;0.01;98.81;102425.69;1042985;28;20295;-78
2022/03/16 00:59:20;;;;;;;22.17;19.95;;;;;;;0.00;98.52;102429.25;1043166;28;20307;-77
2022/03/16 00:59:52;;;;;;;22.70;20.20;;;;;;;-0.17;98.61;102425.19;1043653;28;20292;-77
2022/03/16 01:00:23;;;;;;;21.33;19.08;;;;;;;-0.21;98.46;102422.88;1043266;28;20449;-78
2022/03/16 01:00:55;;;;;;;23.58;19.38;;;;;;;-0.17;98.32;102421.72;1043427;28;20850;-73
2022/03/16 01:01:27;;;;;;;22.38;19.95;;;;;;;-0.26;98.51;102428.44;1043882;28;20652;-73
2022/03/16 01:01:59;;;;;;;21.90;19.73;;;;;;;-0.35;98.51;102427.28;1044154;28;20826;-73
2022/03/16 01:02:33;;;;;;;20.50;18.48;;;;;;;-0.20;98.52;102424.56;1039848;28;20390;-73
2022/03/16 01:03:04;;;;;;;20.85;18.77;;;;;;;-0.17;99.11;102424.34;1040764;28;20878;-73
2022/03/16 01:03:40;;;;;;;23.15;19.38;;;;;;;-0.20;98.65;102424.56;1044030;28;20310;-73
2022/03/16 01:04:11;;;;;;;21.10;18.67;;;;;;;-0.16;98.27;102426.03;1044536;28;20295;-73
2022/03/16 01:04:43;;;;;;;24.35;18.63;;;;;;;-0.17;98.28;102430.41;1043864;28;20303;-73
2022/03/16 01:05:14;;;;;;;21.23;19.15;;;;;;;-0.10;98.11;102430.81;1044387;28;20287;-73
2022/03/16 01:05:46;;;;;;;27.08;22.33;;;;;;;-0.05;98.25;102428.72;1044132;28;20299;-73
2022/03/16 01:06:20;;;;;;;20.75;18.60;;;;;;;-0.26;98.11;102431.06;1036325;28;20784;-74
2022/03/16 01:06:54;;;;;;;20.40;18.20;;;;;;;-0.22;98.37;102426.47;1035523;28;20307;-73
2022/03/16 01:07:25;;;;;;;20.60;18.40;;;;;;;-0.16;98.18;102428.63;1031987;28;20293;-72
2022/03/16 01:07:58;;;;;;;23.02;20.55;;;;;;;-0.19;98.22;102427.06;1030628;28;20298;-73
2022/03/16 01:08:30;;;;;;;22.50;19.88;;;;;;;-0.29;98.25;102430.41;1032364;28;20890;-73
2022/03/16 01:09:04;;;;;;;24.60;18.98;;;;;;;-0.17;98.29;102430.41;1036936;28;20336;-73
2022/03/16 01:09:35;;;;;;;25.17;19.70;;;;;;;-0.18;98.39;102430.53;1040978;28;20295;-73
2022/03/16 01:10:08;;;;;;;27.45;21.08;;;;;;;-0.20;98.43;102427.19;1044638;28;20295;-73
2022/03/16 01:10:40;;;;;;;24.60;20.70;;;;;;;-0.20;98.39;102432.41;1044033;28;20663;-73
2022/03/16 01:11:12;;;;;;;26.67;20.33;;;;;;;-0.20;98.34;102435.03;1044135;28;20306;-73
2022/03/16 01:11:43;;;;;;;22.67;20.33;;;;;;;-0.35;98.51;102426.44;1044167;28;20295;-73
2022/03/16 01:12:15;;;;;;;24.02;20.20;;;;;;;-0.27;98.50;102433.78;1040211;28;20300;-72
2022/03/16 01:12:47;;;;;;;23.27;20.85;;;;;;;-0.26;98.45;102433.69;1039731;28;20300;-73
2022/03/16 01:13:22;;;;;;;23.13;20.65;;;;;;;-0.31;98.37;102433.97;1036152;28;20315;-73
2022/03/16 01:13:53;;;;;;;26.02;19.63;;;;;;;-0.33;98.64;102441.09;1035893;28;20711;-73
2022/03/16 01:14:25;;;;;;;23.38;20.17;;;;;;;-0.35;98.29;102443.00;1031734;28;20327;-73
2022/03/16 01:14:57;;;;;;;25.48;20.00;;;;;;;-0.34;98.52;102442.06;1032878;28;20297;-73
2022/03/16 01:15:29;;;;;;;24.35;19.50;;;;;;;-0.42;98.12;102436.53;1037377;28;20296;-73
2022/03/16 01:16:02;;;;;;;32.38;21.15;;;;;;;-0.57;98.38;102445.41;1040319;28;20310;-73
2022/03/16 01:16:35;;;;;;;23.70;21.02;;;;;;;-0.56;98.33;102441.00;1040081;28;20390;-73
2022/03/16 01:17:07;;;;;;;24.02;20.50;;;;;;;-0.51;98.41;102445.00;1040271;28;20304;-73
2022/03/16 01:17:39;;;;;;;23.73;20.65;;;;;;;-0.53;98.46;102452.13;1040737;28;20302;-73
2022/03/16 01:18:11;;;;;;;26.40;20.63;;;;;;;-0.49;98.74;102444.91;1043974;28;20299;-73
2022/03/16 01:18:43;;;;;;;23.55;21.15;;;;;;;-0.52;98.63;102448.56;1044420;28;20302;-73
2022/03/16 01:19:16;;;;;;;23.73;21.33;;;;;;;-0.59;98.79;102449.06;1042424;28;20335;-73
2022/03/16 01:19:48;;;;;;;23.95;20.67;;;;;;;-0.54;99.22;102447.84;1044227;28;20299;-73
2022/03/16 01:20:19;;;;;;;25.02;21.80;;;;;;;-0.52;99.10;102445.13;1039217;28;20308;-73
2022/03/16 01:20:51;;;;;;;23.05;20.63;;;;;;;-0.54;99.10;102442.59;1036005;28;20716;-73
2022/03/16 01:21:23;;;;;;;27.42;22.20;;;;;;;-0.48;99.33;102444.78;1040007;28;20349;-72
2022/03/16 01:21:55;;;;;;;24.48;21.75;;;;;;;-0.45;99.42;102447.19;1040674;28;20338;-73
2022/03/16 01:22:26;;;;;;;25.02;22.08;;;;;;;-0.49;99.51;102444.91;1048787;28;20291;-73
2022/03/16 01:22:58;;;;;;;25.33;22.70;;;;;;;-0.55;99.58;102446.13;1047689;28;20295;-73
2022/03/16 01:23:29;;;;;;;24.42;22.00;;;;;;;-0.49;99.51;102439.66;1043929;28;20306;-73
2022/03/16 01:24:01;;;;;;;26.88;22.05;;;;;;;-0.45;99.62;102447.19;1044273;28;20295;-73
2022/03/16 01:24:33;;;;;;;25.80;22.30;;;;;;;-0.39;99.85;102441.53;1044262;28;20306;-73
2022/03/16 01:25:05;;;;;;;25.98;22.40;;;;;;;-0.38;99.68;102448.44;1044062;28;20659;-73
2022/03/16 01:25:37;;;;;;;32.10;22.60;;;;;;;-0.39;99.50;102443.31;1044018;28;20714;-73
2022/03/16 01:26:08;;;;;;;26.10;23.25;;;;;;;-0.35;99.67;102448.22;1044073;28;20706;-73
2022/03/16 01:26:40;;;;;;;27.50;22.08;;;;;;;-0.36;99.95;102449.19;1043968;28;20315;-73
2022/03/16 01:27:12;;;;;;;24.63;21.95;;;;;;;-0.52;99.65;102445.97;1043870;28;20826;-73
2022/03/16 01:27:48;;;;;;;25.42;22.55;;;;;;;-0.55;99.70;102442.69;1044454;28;20283;-73
2022/03/16 01:28:20;;;;;;;24.77;22.27;;;;;;;-0.53;99.62;102439.03;1044197;28;20303;-73
2022/03/16 01:28:52;;;;;;;22.95;20.65;;;;;;;-0.50;99.80;102444.06;1043814;28;20287;-73
2022/03/16 01:29:25;;;;;;;23.70;19.13;;;;;;;-0.54;99.57;102440.00;1043960;28;20377;-73
2022/03/16 01:29:56;;;;;;;23.30;19.88;;;;;;;-0.54;99.50;102433.91;1043560;28;20473;-72
2022/03/16 01:30:28;;;;;;;21.30;19.08;;;;;;;-0.57;100.00;102432.31;1043956;28;20303;-72
2022/03/16 01:31:01;;;;;;;23.80;19.65;;;;;;;-0.46;99.54;102439.47;1043984;28;20378;-73
2022/03/16 01:31:34;;;;;;;32.28;20.05;;;;;;;-0.55;99.47;102435.66;1040044;28;20311;-72
2022/03/16 01:32:06;;;;;;;25.90;22.13;;;;;;;-0.67;99.68;102433.91;1040050;28;20399;-73
2022/03/16 01:32:38;;;;;;;25.98;21.30;;;;;;;-0.57;99.30;102434.94;1039427;28;20705;-73
2022/03/16 01:33:09;;;;;;;25.17;21.52;;;;;;;-0.52;99.77;102430.25;1040880;28;20302;-73
2022/03/16 01:33:41;;;;;;;24.77;21.75;;;;;;;-0.52;99.73;102432.88;1044118;28;20370;-73
2022/03/16 01:34:12;;;;;;;25.95;22.25;;;;;;;-0.66;99.57;102435.56;1043983;28;20311;-73
2022/03/16 01:34:44;;;;;;;27.10;23.75;;;;;;;-0.72;99.36;102431.59;1039869;28;20422;-73
2022/03/16 01:35:18;;;;;;;29.00;21.83;;;;;;;-0.76;100.00;102434.53;1032442;28;20297;-73
2022/03/16 01:35:50;;;;;;;23.27;20.77;;;;;;;-0.76;99.94;102437.16;1035982;28;20300;-73
2022/03/16 01:36:21;;;;;;;24.38;21.75;;;;;;;-0.71;100.00;102433.28;1036425;28;20292;-73
2022/03/16 01:36:53;;;;;;;27.92;22.80;;;;;;;-0.61;100.00;102438.72;1041005;28;20295;-73
2022/03/16 01:37:24;;;;;;;27.20;23.42;;;;;;;-0.50;100.00;102435.38;1044132;28;20307;-73
2022/03/16 01:37:56;;;;;;;25.88;22.88;;;;;;;-0.53;100.00;102431.19;1043938;28;20314;-73
2022/03/16 01:38:27;;;;;;;26.23;23.08;;;;;;;-0.47;100.00;102438.63;1043953;28;20298;-73
2022/03/16 01:39:02;;;;;;;26.10;21.35;;;;;;;-0.50;100.00;102427.53;1040724;28;20349;-73
2022/03/16 01:39:34;;;;;;;32.25;23.30;;;;;;;-0.33;100.00;102428.03;1044160;28;20299;-73
2022/03/16 01:40:06;;;;;;;26.70;22.45;;;;;;;-0.35;100.00;102431.69;1043925;28;20299;-72
2022/03/16 01:40:37;;;;;;;28.00;22.75;;;;;;;-0.37;100.00;102429.19;1040957;28;20303;-73
2022/03/16 01:41:09;;;;;;;26.40;23.02;;;;;;;-0.32;100.00;102426.25;1041440;28;20292;-73
2022/03/16 01:41:42;;;;;;;24.65;21.90;;;;;;;-0.24;99.83;102429.19;1043958;28;20644;-72
2022/03/16 01:42:14;;;;;;;24.17;21.60;;;;;;;-0.19;99.94;102421.00;1043999;28;20806;-73
2022/03/16 01:42:45;;;;;;;25.50;23.00;;;;;;;-0.18;99.63;102422.66;1044392;28;20425;-73
2022/03/16 01:43:17;;;;;;;25.23;22.77;;;;;;;-0.19;99.93;102423.63;1043895;28;20766;-73
2022/03/16 01:43:57;;;;;;;26.33;22.25;;;;;;;-0.16;99.76;102415.53;1039812;28;20296;-72
2022/03/16 01:45:05;;;;;;;25.20;22.25;;;;;;;-0.14;99.87;102419.72;1035704;28;20305;-72
2022/03/16 01:45:37;;;;;;;31.05;21.17;;;;;;;-0.09;99.78;102422.03;1027461;28;20055;-73
2022/03/16 01:46:09;;;;;;;33.58;25.23;;;;;;;-0.07;99.61;102426.19;1029776;28;20298;-73
2022/03/16 01:46:42;;;;;;;28.38;25.08;;;;;;;-0.04;99.67;102420.75;1035571;28;20308;-72
2022/03/16 01:47:16;;;;;;;29.65;24.65;;;;;;;-0.07;99.54;102420.13;1027442;28;20305;-72
2022/03/16 01:47:47;;;;;;;31.58;24.25;;;;;;;-0.08;99.62;102424.53;1023683;29;20298;-72
2022/03/16 01:48:20;;;;;;;26.42;23.55;;;;;;;-0.11;99.50;102423.91;1034041;28;20632;-73
2022/03/16 01:48:51;;;;;;;27.80;23.50;;;;;;;-0.23;99.50;102432.63;1037093;28;20629;-73
2022/03/16 01:49:23;;;;;;;27.10;24.27;;;;;;;-0.26;99.61;102425.00;1044557;28;20300;-73
2022/03/16 01:49:55;;;;;;;26.63;23.83;;;;;;;-0.31;99.62;102428.75;1043576;28;20303;-73
2022/03/16 01:50:27;;;;;;;25.15;22.65;;;;;;;-0.37;99.50;102421.31;1032296;28;20694;-73
2022/03/16 01:50:59;;;;;;;27.75;22.77;;;;;;;-0.41;99.40;102432.13;1035418;28;20823;-73
2022/03/16 01:51:31;;;;;;;29.80;24.02;;;;;;;-0.43;99.49;102424.38;1028367;28;20396;-73
2022/03/16 01:52:03;;;;;;;29.15;23.67;;;;;;;-0.43;99.45;102423.53;1032843;28;20793;-73
2022/03/16 01:52:40;;;;;;;27.80;22.00;;;;;;;-0.44;99.50;102427.94;1027554;28;20321;-73
2022/03/16 01:53:12;;;;;;;25.45;22.85;;;;;;;-0.46;99.47;102427.19;1026148;28;20307;-73
2022/03/16 01:53:44;;;;;;;29.60;24.33;;;;;;;-0.57;99.47;102427.09;1027703;28;20393;-73
2022/03/16 01:54:17;;;;;;;26.50;23.75;;;;;;;-0.53;99.40;102428.56;1026526;28;20366;-72
2022/03/16 01:54:50;;;;;;;28.27;25.27;;;;;;;-0.56;99.32;102428.75;1036314;28;20319;-72
2022/03/16 01:55:21;;;;;;;36.05;25.63;;;;;;;-0.61;99.93;102428.25;1035726;28;20351;-73
2022/03/16 01:55:53;;;;;;;29.27;24.67;;;;;;;-0.60;99.88;102421.22;1036801;28;20827;-73
2022/03/16 01:56:25;;;;;;;28.75;24.85;;;;;;;-0.40;100.00;102416.31;1032029;28;20397;-77
2022/03/16 01:56:56;;;;;;;34.03;26.23;;;;;;;-0.26;99.93;102417.16;1028098;28;20310;-78
2022/03/16 01:57:29;;;;;;;28.13;25.30;;;;;;;-0.20;99.97;102422.78;1027713;28;20306;-78
2022/03/16 01:58:00;;;;;;;28.77;25.67;;;;;;;-0.15;99.80;102422.47;1035909;28;20319;-78
2022/03/16 01:58:32;;;;;;;32.05;24.67;;;;;;;-0.17;100.00;102419.09;1039926;28;20393;-77
2022/03/16 01:59:05;;;;;;;26.83;24.00;;;;;;;-0.17;99.80;102424.34;1048130;28;20886;-77
2022/03/16 01:59:40;;;;;;;25.67;22.98;;;;;;;-0.13;99.74;102418.78;1047648;28;20307;-78
2022/03/16 02:00:12;;;;;;;27.63;21.90;;;;;;;-0.12;99.87;102419.63;1039586;28;20304;-77
2022/03/16 02:00:45;;;;;;;24.73;21.00;;;;;;;-0.11;100.00;102423.91;1039743;28;20307;-77
2022/03/16 02:01:17;;;;;;;23.83;21.42;;;;;;;-0.07;99.61;102414.88;1040652;28;20304;-77
2022/03/16 02:01:49;;;;;;;24.38;21.33;;;;;;;-0.18;99.52;102413.03;1044190;28;20404;-78
2022/03/16 02:02:21;;;;;;;23.05;20.85;;;;;;;-0.16;99.83;102415.53;1039755;28;20443;-78
2022/03/16 02:02:53;;;;;;;24.85;21.35;;;;;;;-0.09;99.60;102411.53;1035424;28;20316;-77
2022/03/16 02:03:24;;;;;;;24.33;21.83;;;;;;;-0.06;99.78;102409.53;1035889;28;20386;-78
2022/03/16 02:03:56;;;;;;;23.25;20.40;;;;;;;-0.08;99.97;102411.44;1036076;28;20483;-77
2022/03/16 02:04:29;;;;;;;25.95;22.42;;;;;;;-0.18;99.21;102409.59;1040253;28;20303;-77
2022/03/16 02:05:01;;;;;;;23.08;20.50;;;;;;;-0.13;99.37;102403.06;1040667;28;20370;-77
2022/03/16 02:05:34;;;;;;;25.02;22.35;;;;;;;-0.05;99.19;102405.13;1043943;28;20662;-77
2022/03/16 02:06:05;;;;;;;23.95;21.55;;;;;;;0.06;98.99;102400.00;1039822;28;20333;-78
2022/03/16 02:06:37;;;;;;;30.45;23.23;;;;;;;0.08;99.52;102405.97;1036123;28;20305;-78
2022/03/16 02:07:11;;;;;;;26.95;22.40;;;;;;;0.11;99.23;102408.34;1035811;28;20338;-77
2022/03/16 02:07:43;;;;;;;23.13;20.85;;;;;;;0.02;99.16;102409.03;1034293;28;20301;-78
2022/03/16 02:08:15;;;;;;;21.40;19.38;;;;;;;0.03;99.11;102404.63;1036246;28;20304;-77
2022/03/16 02:08:46;;;;;;;24.80;20.95;;;;;;;-0.02;99.58;102403.13;1036620;28;20323;-77
2022/03/16 02:09:19;;;;;;;22.13;20.10;;;;;;;-0.06;99.00;102408.69;1035676;28;20315;-77
2022/03/16 02:09:52;;;;;;;21.35;19.35;;;;;;;-0.06;99.03;102406.09;1036425;28;20649;-78
2022/03/16 02:10:24;;;;;;;22.33;19.95;;;;;;;-0.07;99.25;102412.28;1040316;28;20300;-77
2022/03/16 02:10:56;;;;;;;21.85;19.60;;;;;;;-0.19;99.05;102410.53;1040085;28;20287;-78
2022/03/16 02:11:27;;;;;;;23.00;19.20;;;;;;;-0.16;98.91;102410.31;1039813;28;20288;-77
2022/03/16 02:11:59;;;;;;;23.35;20.65;;;;;;;-0.19;99.08;102407.91;1040144;28;20307;-78
2022/03/16 02:12:45;;;;;;;21.67;19.55;;;;;;;-0.34;98.99;102401.94;1040355;28;20347;-77
2022/03/16 02:13:17;;;;;;;20.67;18.63;;;;;;;-0.33;99.11;102407.06;1039007;28;20304;-78
2022/03/16 02:13:48;;;;;;;23.23;19.98;;;;;;;-0.35;99.16;102410.75;1039754;28;20327;-78
2022/03/16 02:14:20;;;;;;;25.70;20.98;;;;;;;-0.38;98.67;102411.81;1042167;28;20296;-78
2022/03/16 02:14:51;;;;;;;25.60;19.50;;;;;;;-0.34;99.19;102409.81;1040203;28;20302;-78
2022/03/16 02:15:24;;;;;;;22.92;20.63;;;;;;;-0.26;99.38;102406.66;1043899;28;20310;-78
2022/03/16 02:15:55;;;;;;;25.10;22.05;;;;;;;-0.27;99.30;102407.59;1039833;28;20288;-77
2022/03/16 02:16:27;;;;;;;23.83;21.25;;;;;;;-0.31;98.66;102413.03;1040362;28;20308;-78
2022/03/16 02:16:59;;;;;;;29.80;21.42;;;;;;;-0.42;98.89;102409.50;1039083;28;20300;-77
2022/03/16 02:17:30;;;;;;;26.05;22.23;;;;;;;-0.38;98.88;102419.66;1040590;28;20831;-77
2022/03/16 02:18:03;;;;;;;23.98;21.40;;;;;;;-0.40;99.10;102408.44;1043913;28;20306;-78
2022/03/16 02:18:34;;;;;;;25.52;22.85;;;;;;;-0.46;98.63;102408.03;1043856;28;20933;-77
2022/03/16 02:19:06;;;;;;;23.35;21.05;;;;;;;-0.48;98.54;102417.78;1044084;28;20295;-78
2022/03/16 02:19:37;;;;;;;26.98;22.50;;;;;;;-0.50;98.74;102407.44;1044198;28;20295;-77
2022/03/16 02:20:09;;;;;;;25.67;21.85;;;;;;;-0.49;98.68;102416.94;1043836;28;20678;-77
2022/03/16 02:20:41;;;;;;;27.58;22.15;;;;;;;-0.66;98.54;102412.03;1043857;28;20385;-78
2022/03/16 02:21:15;;;;;;;26.13;23.33;;;;;;;-0.74;98.77;102414.34;1039742;28;20308;-78
2022/03/16 02:21:53;;;;;;;30.63;22.50;;;;;;;-0.81;99.07;102413.06;1034330;28;20301;-78
2022/03/16 02:22:25;;;;;;;28.65;22.52;;;;;;;-0.74;99.05;102414.34;1037295;28;20704;-78
2022/03/16 02:22:58;;;;;;;24.27;21.65;;;;;;;-0.68;99.30;102406.06;1037185;28;20305;-73
2022/03/16 02:23:30;;;;;;;24.98;22.27;;;;;;;-0.74;99.07;102414.34;1037060;28;20316;-73
2022/03/16 02:24:02;;;;;;;39.72;23.92;;;;;;;-0.84;99.18;102408.03;1039788;28;20303;-73
2022/03/16 02:24:34;;;;;;;28.10;22.10;;;;;;;-0.74;99.42;102414.34;1036453;28;20312;-73
2022/03/16 02:25:07;;;;;;;26.08;23.27;;;;;;;-0.74;99.59;102411.72;1040117;28;20302;-72
2022/03/16 02:25:50;;;;;;;28.52;21.90;;;;;;;-0.69;99.53;102417.47;1039730;28;20292;-73
2022/03/16 02:26:25;;;;;;;24.77;20.25;;;;;;;-0.65;99.42;102411.06;1041815;28;20387;-72
2022/03/16 02:26:58;;;;;;;27.98;22.67;;;;;;;-0.63;99.61;102414.44;1039646;28;20300;-73